createdAt,value
2018-09-03T00:00:10.794Z,102256.02
2018-09-03T00:00:24.997Z,102259.02
2018-09-03T00:00:36.801Z,102256.02
2018-09-03T00:00:48.694Z,102257.33
2018-09-03T00:01:00.443Z,102259.95
2018-09-03T00:01:12.214Z,102259.40
2018-09-03T00:01:27.958Z,102260.33
2018-09-03T00:01:41.550Z,102257.72
2018-09-03T00:01:54.165Z,102256.95
2018-09-03T00:02:06.798Z,102253.79
2018-09-03T00:02:19.071Z,102253.41
2018-09-03T00:02:31.286Z,102257.33
2018-09-03T00:02:43.139Z,102253.41
2018-09-03T00:02:54.951Z,102255.09
2018-09-03T00:03:06.843Z,102254.72
2018-09-03T00:03:18.672Z,102249.86
2018-09-03T00:03:30.452Z,102250.80
2018-09-03T00:03:42.200Z,102256.95
2018-09-03T00:03:53.949Z,102255.09
2018-09-03T00:04:05.733Z,102256.41
2018-09-03T00:04:17.499Z,102254.34
2018-09-03T00:04:29.256Z,102251.72
2018-09-03T00:04:41.030Z,102251.72
2018-09-03T00:04:52.787Z,102254.34
2018-09-03T00:05:04.550Z,102249.86
2018-09-03T00:05:16.366Z,102250.41
2018-09-03T00:05:28.158Z,102256.57
2018-09-03T00:05:39.938Z,102252.10
2018-09-03T00:05:51.702Z,102253.95
2018-09-03T00:06:03.476Z,102258.27
2018-09-03T00:06:15.238Z,102255.09
2018-09-03T00:06:26.995Z,102252.10
2018-09-03T00:06:38.765Z,102248.18
2018-09-03T00:06:50.521Z,102253.03
2018-09-03T00:07:02.301Z,102256.02
2018-09-03T00:07:14.106Z,102253.41
2018-09-03T00:07:26.024Z,102247.63
2018-09-03T00:07:37.784Z,102254.72
2018-09-03T00:07:49.568Z,102249.48
2018-09-03T00:08:01.345Z,102245.56
2018-09-03T00:08:13.117Z,102249.48
2018-09-03T00:08:25.006Z,102245.94
2018-09-03T00:08:36.762Z,102248.18
2018-09-03T00:08:48.524Z,102256.57
2018-09-03T00:09:00.295Z,102251.72
2018-09-03T00:09:12.168Z,102250.41
2018-09-03T00:09:23.937Z,102250.41
2018-09-03T00:09:42.776Z,102248.56
2018-09-03T00:09:54.621Z,102245.94
2018-09-03T00:10:06.381Z,102241.64
2018-09-03T00:10:18.150Z,102249.86
2018-09-03T00:10:30.005Z,102244.25
2018-09-03T00:10:42.175Z,102246.87
2018-09-03T00:10:54.025Z,102248.72
2018-09-03T00:11:05.798Z,102243.70
2018-09-03T00:11:17.651Z,102248.94
2018-09-03T00:11:29.430Z,102247.80
2018-09-03T00:11:41.190Z,102246.48
2018-09-03T00:11:53.317Z,102245.19
2018-09-03T00:12:05.071Z,102239.41
2018-09-03T00:12:16.834Z,102245.56
2018-09-03T00:12:28.641Z,102245.56
2018-09-03T00:12:40.420Z,102244.64
2018-09-03T00:12:52.237Z,102242.40
2018-09-03T00:13:04.213Z,102244.64
2018-09-03T00:13:16.017Z,102243.33
2018-09-03T00:13:27.872Z,102242.02
2018-09-03T00:13:39.760Z,102240.71
2018-09-03T00:13:51.574Z,102243.33
2018-09-03T00:14:03.366Z,102234.55
2018-09-03T00:14:15.163Z,102242.56
2018-09-03T00:14:26.919Z,102244.25
2018-09-03T00:14:38.874Z,102239.41
2018-09-03T00:14:50.641Z,102238.09
2018-09-03T00:15:02.776Z,102245.56
2018-09-03T00:15:14.531Z,102244.25
2018-09-03T00:15:26.361Z,102245.94
2018-09-03T00:15:38.149Z,102240.33
2018-09-03T00:15:50.097Z,102239.78
2018-09-03T00:16:01.873Z,102241.26
2018-09-03T00:16:13.674Z,102241.26
2018-09-03T00:16:25.446Z,102242.95
2018-09-03T00:16:37.377Z,102242.02
2018-09-03T00:16:49.180Z,102242.95
2018-09-03T00:17:00.964Z,102240.71
2018-09-03T00:17:12.726Z,102239.41
2018-09-03T00:17:24.691Z,102241.64
2018-09-03T00:17:36.475Z,102238.48
2018-09-03T00:17:48.235Z,102241.09
2018-09-03T00:18:00.000Z,102237.17
2018-09-03T00:18:11.811Z,102238.48
2018-09-03T00:18:23.707Z,102236.78
2018-09-03T00:18:35.475Z,102234.55
2018-09-03T00:18:47.255Z,102240.33
2018-09-03T00:18:59.026Z,102239.95
2018-09-03T00:19:10.813Z,102238.64
2018-09-03T00:19:22.585Z,102235.86
2018-09-03T00:19:34.360Z,102239.95
2018-09-03T00:19:46.136Z,102235.10
2018-09-03T00:19:57.913Z,102240.33
2018-09-03T00:20:09.731Z,102239.95
2018-09-03T00:20:21.512Z,102239.78
2018-09-03T00:20:33.275Z,102235.10
2018-09-03T00:20:45.076Z,102235.10
2018-09-03T00:20:56.917Z,102240.88
2018-09-03T00:21:08.745Z,102242.95
2018-09-03T00:21:20.534Z,102243.87
2018-09-03T00:21:32.579Z,102234.17
2018-09-03T00:21:44.393Z,102237.34
2018-09-03T00:21:56.202Z,102240.71
2018-09-03T00:22:08.035Z,102236.78
2018-09-03T00:22:19.794Z,102235.86
2018-09-03T00:22:31.584Z,102239.95
2018-09-03T00:22:43.346Z,102234.17
2018-09-03T00:22:55.233Z,102239.95
2018-09-03T00:23:07.048Z,102239.41
2018-09-03T00:23:18.816Z,102235.86
2018-09-03T00:23:30.590Z,102242.56
2018-09-03T00:23:42.480Z,102239.95
2018-09-03T00:23:54.256Z,102232.11
2018-09-03T00:24:06.037Z,102235.10
2018-09-03T00:24:17.978Z,102231.17
2018-09-03T00:24:29.750Z,102237.72
2018-09-03T00:24:41.527Z,102236.03
2018-09-03T00:24:53.307Z,102231.17
2018-09-03T00:25:05.055Z,102236.41
2018-09-03T00:25:16.810Z,102232.86
2018-09-03T00:25:28.582Z,102236.41
2018-09-03T00:25:40.385Z,102231.17
2018-09-03T00:25:52.159Z,102234.17
2018-09-03T00:26:03.931Z,102234.55
2018-09-03T00:26:15.698Z,102234.17
2018-09-03T00:26:27.517Z,102231.17
2018-09-03T00:26:39.292Z,102224.47
2018-09-03T00:26:51.052Z,102230.25
2018-09-03T00:27:02.832Z,102231.17
2018-09-03T00:27:14.588Z,102231.56
2018-09-03T00:27:26.542Z,102232.11
2018-09-03T00:27:38.380Z,102234.34
2018-09-03T00:27:50.139Z,102231.56
2018-09-03T00:28:01.909Z,102228.94
2018-09-03T00:28:13.685Z,102234.34
2018-09-03T00:28:25.453Z,102232.48
2018-09-03T00:28:37.226Z,102232.48
2018-09-03T00:28:48.995Z,102237.34
2018-09-03T00:29:00.815Z,102228.56
2018-09-03T00:29:12.628Z,102234.34
2018-09-03T00:29:24.698Z,102229.32
2018-09-03T00:29:36.497Z,102230.25
2018-09-03T00:29:48.352Z,102230.63
2018-09-03T00:30:00.189Z,102229.87
2018-09-03T00:30:11.954Z,102230.80
2018-09-03T00:30:23.760Z,102229.48
2018-09-03T00:30:35.532Z,102225.95
2018-09-03T00:30:47.302Z,102231.56
2018-09-03T00:32:03.232Z,102226.70
2018-09-03T00:33:19.421Z,102229.87
2018-09-03T00:33:36.647Z,102230.80
2018-09-03T00:33:53.774Z,102228.56
2018-09-03T00:34:11.014Z,102229.48
2018-09-03T00:34:28.393Z,102226.70
2018-09-03T00:34:45.640Z,102231.17
2018-09-03T00:35:02.859Z,102231.56
2018-09-03T00:35:19.930Z,102223.71
2018-09-03T00:35:37.281Z,102227.63
2018-09-03T00:35:54.391Z,102227.63
2018-09-03T00:36:11.691Z,102229.87
2018-09-03T00:36:29.021Z,102227.63
2018-09-03T00:36:46.412Z,102226.70
2018-09-03T00:37:03.591Z,102229.87
2018-09-03T00:37:20.881Z,102229.87
2018-09-03T00:37:38.031Z,102226.70
2018-09-03T00:37:55.242Z,102224.09
2018-09-03T00:38:12.570Z,102225.40
2018-09-03T00:38:29.764Z,102225.40
2018-09-03T00:38:47.140Z,102223.71
2018-09-03T00:39:04.478Z,102227.25
2018-09-03T00:39:21.836Z,102217.93
2018-09-03T00:39:39.139Z,102228.02
2018-09-03T00:39:56.466Z,102223.71
2018-09-03T00:40:13.718Z,102226.33
2018-09-03T00:40:30.810Z,102221.09
2018-09-03T00:41:47.689Z,102219.24
2018-09-03T00:42:04.911Z,102226.70
2018-09-03T00:42:22.035Z,102224.64
2018-09-03T00:42:39.414Z,102219.78
2018-09-03T00:42:56.617Z,102220.17
2018-09-03T00:43:13.881Z,102214.94
2018-09-03T00:43:31.190Z,102222.02
2018-09-03T00:43:48.363Z,102222.41
2018-09-03T00:44:05.682Z,102219.78
2018-09-03T00:44:22.868Z,102222.02
2018-09-03T00:44:40.088Z,102221.47
2018-09-03T00:44:57.384Z,102218.86
2018-09-03T00:45:14.546Z,102218.86
2018-09-03T00:45:31.682Z,102217.17
2018-09-03T00:45:48.891Z,102225.02
2018-09-03T00:46:06.018Z,102219.24
2018-09-03T00:46:23.240Z,102222.78
2018-09-03T00:46:40.394Z,102223.71
2018-09-03T00:46:58.258Z,102225.02
2018-09-03T00:47:11.232Z,102220.17
2018-09-03T00:47:23.026Z,102222.78
2018-09-03T00:47:34.812Z,102220.71
2018-09-03T00:47:46.618Z,102220.17
2018-09-03T00:47:58.383Z,102222.41
2018-09-03T00:48:10.134Z,102220.17
2018-09-03T00:48:21.926Z,102220.71
2018-09-03T00:48:33.706Z,102226.33
2018-09-03T00:48:45.522Z,102223.71
2018-09-03T00:48:57.605Z,102225.02
2018-09-03T00:49:09.391Z,102225.02
2018-09-03T00:49:21.206Z,102221.09
2018-09-03T00:49:33.012Z,102226.70
2018-09-03T00:49:44.798Z,102221.09
2018-09-03T00:49:56.600Z,102221.47
2018-09-03T00:50:08.382Z,102221.47
2018-09-03T00:50:20.220Z,102223.33
2018-09-03T00:50:32.023Z,102223.71
2018-09-03T00:50:43.796Z,102225.02
2018-09-03T00:50:55.877Z,102222.78
2018-09-03T00:51:07.642Z,102224.64
2018-09-03T00:51:19.471Z,102223.71
2018-09-03T00:51:31.860Z,102220.71
2018-09-03T00:51:43.668Z,102221.09
2018-09-03T00:51:55.423Z,102222.41
2018-09-03T00:52:07.226Z,102222.41
2018-09-03T00:52:19.011Z,102222.02
2018-09-03T00:52:30.972Z,102224.64
2018-09-03T00:52:42.759Z,102219.78
2018-09-03T00:52:54.535Z,102221.47
2018-09-03T00:53:06.275Z,102221.09
2018-09-03T00:53:18.044Z,102221.47
2018-09-03T00:53:29.827Z,102225.95
2018-09-03T00:53:41.579Z,102221.09
2018-09-03T00:53:53.483Z,102221.47
2018-09-03T00:54:05.300Z,102224.26
2018-09-03T00:54:17.094Z,102225.40
2018-09-03T00:54:29.127Z,102218.48
2018-09-03T00:54:41.030Z,102223.71
2018-09-03T00:54:52.826Z,102221.09
2018-09-03T00:55:04.598Z,102219.41
2018-09-03T00:55:16.366Z,102225.95
2018-09-03T00:55:28.147Z,102225.02
2018-09-03T00:55:39.912Z,102220.17
2018-09-03T00:55:51.688Z,102220.17
2018-09-03T00:56:03.528Z,102218.86
2018-09-03T00:56:15.431Z,102223.71
2018-09-03T00:56:27.729Z,102228.18
2018-09-03T00:56:39.630Z,102223.71
2018-09-03T00:56:51.411Z,102217.55
2018-09-03T00:57:03.191Z,102220.71
2018-09-03T00:57:15.204Z,102219.41
2018-09-03T00:57:26.982Z,102216.24
2018-09-03T00:57:38.757Z,102218.48
2018-09-03T00:57:50.530Z,102219.41
2018-09-03T00:58:02.351Z,102217.55
2018-09-03T00:58:14.160Z,102219.78
2018-09-03T00:58:25.947Z,102215.86
2018-09-03T00:58:37.731Z,102215.10
2018-09-03T00:58:49.487Z,102218.48
2018-09-03T00:59:01.271Z,102219.78
2018-09-03T00:59:13.119Z,102219.95
2018-09-03T00:59:25.058Z,102221.64
2018-09-03T00:59:36.840Z,102215.86
2018-09-03T00:59:48.664Z,102217.17
2018-09-03T01:00:00.457Z,102215.86
2018-09-03T01:00:12.236Z,102218.10
2018-09-03T01:00:24.043Z,102223.33
2018-09-03T01:00:35.853Z,102212.87
2018-09-03T01:00:47.655Z,102214.55
2018-09-03T01:00:59.472Z,102216.24
2018-09-03T01:01:11.438Z,102215.48
2018-09-03T01:01:23.248Z,102215.48
2018-09-03T01:01:35.068Z,102216.79
2018-09-03T01:01:46.832Z,102214.01
2018-09-03T01:01:58.603Z,102219.03
2018-09-03T01:02:10.399Z,102217.17
2018-09-03T01:02:22.159Z,102215.86
2018-09-03T01:02:33.968Z,102213.63
2018-09-03T01:02:45.799Z,102216.79
2018-09-03T01:02:57.572Z,102213.63
2018-09-03T01:03:09.390Z,102211.94
2018-09-03T01:03:21.184Z,102217.17
2018-09-03T01:03:32.946Z,102218.86
2018-09-03T01:03:44.748Z,102217.55
2018-09-03T01:03:56.555Z,102216.24
2018-09-03T01:04:08.328Z,102212.32
2018-09-03T01:04:20.152Z,102214.94
2018-09-03T01:04:32.072Z,102220.71
2018-09-03T01:04:43.865Z,102214.94
2018-09-03T01:04:55.676Z,102211.02
2018-09-03T01:05:07.687Z,102213.25
2018-09-03T01:05:19.543Z,102218.10
2018-09-03T01:05:31.544Z,102213.25
2018-09-03T01:05:43.342Z,102213.63
2018-09-03T01:05:55.119Z,102208.39
2018-09-03T01:06:06.877Z,102217.17
2018-09-03T01:06:18.767Z,102212.87
2018-09-03T01:06:30.826Z,102216.24
2018-09-03T01:06:42.620Z,102216.24
2018-09-03T01:06:54.406Z,102217.17
2018-09-03T01:07:06.204Z,102217.17
2018-09-03T01:07:17.966Z,102216.41
2018-09-03T01:07:29.878Z,102218.10
2018-09-03T01:07:41.659Z,102214.17
2018-09-03T01:07:53.469Z,102214.17
2018-09-03T01:08:05.257Z,102213.63
2018-09-03T01:08:17.125Z,102216.41
2018-09-03T01:08:28.889Z,102212.87
2018-09-03T01:08:40.708Z,102215.86
2018-09-03T01:08:52.478Z,102211.94
2018-09-03T01:09:04.989Z,102210.63
2018-09-03T01:09:16.764Z,102218.10
2018-09-03T01:09:28.521Z,102213.63
2018-09-03T01:09:40.334Z,102204.47
2018-09-03T01:09:52.121Z,102209.70
2018-09-03T01:10:03.933Z,102218.48
2018-09-03T01:10:15.766Z,102211.02
2018-09-03T01:10:27.551Z,102209.70
2018-09-03T01:10:39.328Z,102205.41
2018-09-03T01:10:51.112Z,102208.95
2018-09-03T01:11:02.889Z,102210.09
2018-09-03T01:11:14.664Z,102202.78
2018-09-03T01:11:26.588Z,102208.95
2018-09-03T01:11:38.395Z,102200.17
2018-09-03T01:11:50.162Z,102201.48
2018-09-03T01:12:01.957Z,102206.33
2018-09-03T01:12:13.713Z,102204.26
2018-09-03T01:12:25.653Z,102205.78
2018-09-03T01:12:37.426Z,102206.33
2018-09-03T01:12:49.194Z,102205.02
2018-09-03T01:13:00.946Z,102205.02
2018-09-03T01:13:12.718Z,102202.23
2018-09-03T01:13:24.508Z,102200.00
2018-09-03T01:13:36.316Z,102198.48
2018-09-03T01:13:48.154Z,102200.93
2018-09-03T01:13:59.933Z,102201.86
2018-09-03T01:14:11.731Z,102199.24
2018-09-03T01:14:23.483Z,102203.33
2018-09-03T01:14:35.279Z,102205.02
2018-09-03T01:14:47.037Z,102200.55
2018-09-03T01:14:58.948Z,102197.01
2018-09-03T01:15:10.716Z,102202.78
2018-09-03T01:15:23.007Z,102201.48
2018-09-03T01:15:34.754Z,102199.24
2018-09-03T01:15:46.504Z,102198.86
2018-09-03T01:15:58.247Z,102196.25
2018-09-03T01:16:10.059Z,102195.70
2018-09-03T01:16:21.834Z,102198.86
2018-09-03T01:16:33.641Z,102196.25
2018-09-03T01:16:45.448Z,102201.48
2018-09-03T01:16:57.299Z,102197.17
2018-09-03T01:17:09.108Z,102197.17
2018-09-03T01:17:20.891Z,102194.94
2018-09-03T01:17:32.672Z,102194.02
2018-09-03T01:17:44.426Z,102194.56
2018-09-03T01:17:56.200Z,102194.39
2018-09-03T01:18:07.988Z,102195.31
2018-09-03T01:18:19.730Z,102200.55
2018-09-03T01:18:35.741Z,102197.55
2018-09-03T01:18:47.534Z,102197.17
2018-09-03T01:18:59.271Z,102194.02
2018-09-03T01:19:11.025Z,102195.31
2018-09-03T01:19:22.776Z,102196.25
2018-09-03T01:19:34.552Z,102195.31
2018-09-03T01:19:46.571Z,102202.95
2018-09-03T01:19:58.352Z,102191.02
2018-09-03T01:20:10.156Z,102197.94
2018-09-03T01:20:21.923Z,102197.94
2018-09-03T01:20:33.706Z,102193.63
2018-09-03T01:20:45.488Z,102198.48
2018-09-03T01:20:57.262Z,102195.87
2018-09-03T01:21:09.076Z,102202.41
2018-09-03T01:21:20.830Z,102198.86
2018-09-03T01:21:32.619Z,102204.09
2018-09-03T01:21:44.415Z,102205.02
2018-09-03T01:21:56.252Z,102197.17
2018-09-03T01:22:08.021Z,102194.94
2018-09-03T01:22:19.779Z,102200.17
2018-09-03T01:22:32.593Z,102194.02
2018-09-03T01:22:44.351Z,102196.80
2018-09-03T01:22:56.108Z,102202.02
2018-09-03T01:23:07.879Z,102194.02
2018-09-03T01:23:19.655Z,102195.31
2018-09-03T01:23:31.431Z,102195.31
2018-09-03T01:23:43.208Z,102198.86
2018-09-03T01:23:55.433Z,102195.31
2018-09-03T01:24:07.191Z,102194.94
2018-09-03T01:24:18.995Z,102196.25
2018-09-03T01:24:30.746Z,102189.70
2018-09-03T01:24:42.504Z,102192.33
2018-09-03T01:24:54.640Z,102192.70
2018-09-03T01:25:06.415Z,102202.78
2018-09-03T01:25:18.229Z,102193.63
2018-09-03T01:25:30.024Z,102191.02
2018-09-03T01:25:41.794Z,102193.63
2018-09-03T01:25:53.563Z,102196.25
2018-09-03T01:26:05.315Z,102194.56
2018-09-03T01:26:17.071Z,102195.87
2018-09-03T01:26:28.844Z,102196.25
2018-09-03T01:26:40.602Z,102194.02
2018-09-03T01:26:52.387Z,102196.63
2018-09-03T01:27:04.156Z,102196.80
2018-09-03T01:27:15.930Z,102200.72
2018-09-03T01:27:27.678Z,102199.79
2018-09-03T01:27:39.830Z,102193.25
2018-09-03T01:27:51.583Z,102195.31
2018-09-03T01:28:03.354Z,102195.31
2018-09-03T01:28:15.130Z,102198.48
2018-09-03T01:28:26.907Z,102198.10
2018-09-03T01:28:38.687Z,102198.86
2018-09-03T01:28:50.517Z,102197.17
2018-09-03T01:29:02.333Z,102192.87
2018-09-03T01:29:14.208Z,102193.25
2018-09-03T01:29:25.985Z,102198.48
2018-09-03T01:29:37.797Z,102195.48
2018-09-03T01:29:49.536Z,102195.48
2018-09-03T01:30:01.336Z,102196.80
2018-09-03T01:30:13.092Z,102194.56
2018-09-03T01:30:24.863Z,102196.41
2018-09-03T01:30:36.644Z,102197.55
2018-09-03T01:30:48.409Z,102197.17
2018-09-03T01:31:00.397Z,102195.87
2018-09-03T01:31:12.196Z,102194.94
2018-09-03T01:31:23.948Z,102191.39
2018-09-03T01:31:35.725Z,102188.40
2018-09-03T01:31:47.496Z,102197.17
2018-09-03T01:31:59.295Z,102195.48
2018-09-03T01:32:11.080Z,102192.33
2018-09-03T01:32:22.845Z,102192.70
2018-09-03T01:32:34.598Z,102191.95
2018-09-03T01:32:46.346Z,102191.02
2018-09-03T01:32:58.093Z,102195.87
2018-09-03T01:33:09.868Z,102193.25
2018-09-03T01:33:21.631Z,102193.25
2018-09-03T01:33:33.523Z,102191.02
2018-09-03T01:33:45.325Z,102188.40
2018-09-03T01:33:57.094Z,102191.95
2018-09-03T01:34:08.866Z,102192.70
2018-09-03T01:34:20.648Z,102195.87
2018-09-03T01:34:32.434Z,102193.25
2018-09-03T01:34:44.216Z,102195.87
2018-09-03T01:34:56.060Z,102191.95
2018-09-03T01:35:07.838Z,102192.87
2018-09-03T01:35:19.628Z,102190.25
2018-09-03T01:35:31.405Z,102192.33
2018-09-03T01:35:43.165Z,102191.02
2018-09-03T01:35:55.071Z,102190.09
2018-09-03T01:36:06.813Z,102194.94
2018-09-03T01:36:19.043Z,102191.95
2018-09-03T01:36:30.797Z,102189.33
2018-09-03T01:36:42.612Z,102193.25
2018-09-03T01:36:54.496Z,102194.17
2018-09-03T01:37:06.275Z,102191.56
2018-09-03T01:37:18.067Z,102190.25
2018-09-03T01:37:30.071Z,102191.95
2018-09-03T01:37:41.832Z,102191.95
2018-09-03T01:37:53.624Z,102194.17
2018-09-03T01:38:05.399Z,102191.95
2018-09-03T01:38:17.142Z,102196.80
2018-09-03T01:38:28.967Z,102189.70
2018-09-03T01:38:40.734Z,102188.78
2018-09-03T01:38:52.506Z,102193.25
2018-09-03T01:39:04.748Z,102188.78
2018-09-03T01:39:16.503Z,102193.80
2018-09-03T01:39:28.298Z,102191.56
2018-09-03T01:39:40.062Z,102189.33
2018-09-03T01:39:51.848Z,102193.25
2018-09-03T01:40:04.055Z,102191.95
2018-09-03T01:40:15.875Z,102194.17
2018-09-03T01:40:27.609Z,102185.41
2018-09-03T01:40:39.359Z,102191.95
2018-09-03T01:40:51.129Z,102192.87
2018-09-03T01:41:02.887Z,102185.41
2018-09-03T01:41:14.791Z,102187.64
2018-09-03T01:41:26.573Z,102196.25
2018-09-03T01:41:38.341Z,102186.16
2018-09-03T01:41:50.120Z,102191.95
2018-09-03T01:42:01.858Z,102182.23
2018-09-03T01:42:13.760Z,102183.93
2018-09-03T01:42:25.650Z,102184.86
2018-09-03T01:42:37.428Z,102183.17
2018-09-03T01:42:49.217Z,102185.78
2018-09-03T01:43:00.998Z,102188.95
2018-09-03T01:43:12.869Z,102183.17
2018-09-03T01:43:24.716Z,102184.48
2018-09-03T01:43:36.497Z,102183.17
2018-09-03T01:43:48.678Z,102177.55
2018-09-03T01:44:00.454Z,102176.08
2018-09-03T01:44:12.214Z,102183.55
2018-09-03T01:44:23.976Z,102178.31
2018-09-03T01:44:35.753Z,102183.17
2018-09-03T01:44:47.529Z,102176.63
2018-09-03T01:44:59.287Z,102179.63
2018-09-03T01:45:11.091Z,102177.39
2018-09-03T01:45:22.863Z,102178.87
2018-09-03T01:45:34.634Z,102181.86
2018-09-03T01:45:46.382Z,102174.39
2018-09-03T01:45:58.134Z,102177.55
2018-09-03T01:46:09.893Z,102173.47
2018-09-03T01:46:21.679Z,102175.32
2018-09-03T01:46:33.442Z,102180.55
2018-09-03T01:46:45.262Z,102171.78
2018-09-03T01:46:57.010Z,102168.78
2018-09-03T01:47:08.784Z,102171.78
2018-09-03T01:47:20.569Z,102174.02
2018-09-03T01:47:32.808Z,102171.40
2018-09-03T01:47:44.550Z,102174.02
2018-09-03T01:47:56.329Z,102175.70
2018-09-03T01:48:08.084Z,102172.16
2018-09-03T01:48:19.850Z,102175.32
2018-09-03T01:48:31.647Z,102174.39
2018-09-03T01:48:43.707Z,102171.78
2018-09-03T01:48:55.551Z,102169.16
2018-09-03T01:49:07.352Z,102168.78
2018-09-03T01:49:19.165Z,102170.47
2018-09-03T01:49:30.919Z,102172.70
2018-09-03T01:49:42.678Z,102169.16
2018-09-03T01:49:54.468Z,102172.33
2018-09-03T01:50:06.304Z,102167.86
2018-09-03T01:50:18.050Z,102172.70
2018-09-03T01:50:29.817Z,102170.64
2018-09-03T01:50:41.594Z,102171.40
2018-09-03T01:50:53.363Z,102171.40
2018-09-03T01:51:05.137Z,102167.86
2018-09-03T01:51:16.948Z,102169.16
2018-09-03T01:51:28.752Z,102166.17
2018-09-03T01:51:40.532Z,102168.78
2018-09-03T01:51:52.327Z,102175.87
2018-09-03T01:52:04.121Z,102166.55
2018-09-03T01:52:15.879Z,102170.09
2018-09-03T01:52:27.735Z,102170.09
2018-09-03T01:52:39.538Z,102168.78
2018-09-03T01:52:51.319Z,102171.40
2018-09-03T01:53:03.087Z,102174.39
2018-09-03T01:53:14.862Z,102170.09
2018-09-03T01:53:26.638Z,102168.78
2018-09-03T01:53:38.762Z,102172.70
2018-09-03T01:53:50.537Z,102171.95
2018-09-03T01:54:02.317Z,102166.55
2018-09-03T01:54:14.081Z,102171.02
2018-09-03T01:54:25.856Z,102173.09
2018-09-03T01:54:37.633Z,102170.64
2018-09-03T01:54:49.421Z,102170.09
2018-09-03T01:55:01.189Z,102170.64
2018-09-03T01:55:12.959Z,102168.78
2018-09-03T01:55:24.727Z,102167.86
2018-09-03T01:55:37.235Z,102168.41
2018-09-03T01:55:48.994Z,102166.17
2018-09-03T01:56:00.749Z,102166.55
2018-09-03T01:56:12.525Z,102168.78
2018-09-03T01:56:24.288Z,102168.41
2018-09-03T01:56:36.029Z,102170.64
2018-09-03T01:56:47.853Z,102170.64
2018-09-03T01:56:59.631Z,102172.70
2018-09-03T01:57:11.379Z,102165.41
2018-09-03T01:57:23.380Z,102166.17
2018-09-03T01:57:35.212Z,102167.09
2018-09-03T01:57:46.962Z,102174.94
2018-09-03T01:57:58.755Z,102166.17
2018-09-03T01:58:10.540Z,102166.17
2018-09-03T01:58:22.294Z,102165.23
2018-09-03T01:58:34.246Z,102171.02
2018-09-03T01:58:46.009Z,102166.55
2018-09-03T01:58:57.770Z,102167.48
2018-09-03T01:59:09.556Z,102168.78
2018-09-03T01:59:21.320Z,102168.78
2018-09-03T01:59:33.140Z,102167.64
2018-09-03T01:59:44.904Z,102171.02
2018-09-03T01:59:56.651Z,102173.63
2018-09-03T02:00:08.463Z,102167.09
2018-09-03T02:00:20.261Z,102166.55
2018-09-03T02:00:32.067Z,102168.41
2018-09-03T02:00:43.854Z,102172.33
2018-09-03T02:00:55.633Z,102165.79
2018-09-03T02:01:07.933Z,102168.41
2018-09-03T02:01:19.745Z,102161.31
2018-09-03T02:01:31.515Z,102167.48
2018-09-03T02:01:43.280Z,102162.41
2018-09-03T02:01:55.054Z,102160.55
2018-09-03T02:02:06.802Z,102163.17
2018-09-03T02:02:18.550Z,102161.86
2018-09-03T02:02:30.303Z,102163.17
2018-09-03T02:02:42.177Z,102158.87
2018-09-03T02:02:54.002Z,102157.94
2018-09-03T02:03:05.763Z,102157.02
2018-09-03T02:03:17.520Z,102160.17
2018-09-03T02:03:29.314Z,102159.25
2018-09-03T02:03:41.133Z,102159.63
2018-09-03T02:03:52.976Z,102154.78
2018-09-03T02:04:04.766Z,102161.48
2018-09-03T02:04:16.502Z,102160.17
2018-09-03T02:04:28.268Z,102155.33
2018-09-03T02:04:40.061Z,102154.78
2018-09-03T02:04:51.824Z,102160.55
2018-09-03T02:05:03.578Z,102154.23
2018-09-03T02:05:15.350Z,102155.70
2018-09-03T02:05:27.125Z,102155.70
2018-09-03T02:05:38.918Z,102154.40
2018-09-03T02:05:50.679Z,102153.47
2018-09-03T02:06:02.451Z,102152.71
2018-09-03T02:06:14.217Z,102154.02
2018-09-03T02:06:26.003Z,102154.02
2018-09-03T02:06:38.708Z,102150.09
2018-09-03T02:06:50.503Z,102155.33
2018-09-03T02:07:02.279Z,102152.33
2018-09-03T02:07:14.072Z,102152.71
2018-09-03T02:07:25.882Z,102164.09
2018-09-03T02:07:37.685Z,102155.33
2018-09-03T02:07:49.433Z,102151.78
2018-09-03T02:08:01.217Z,102151.23
2018-09-03T02:08:13.109Z,102156.47
2018-09-03T02:08:24.872Z,102152.71
2018-09-03T02:08:36.828Z,102154.94
2018-09-03T02:08:48.599Z,102157.94
2018-09-03T02:09:00.434Z,102154.40
2018-09-03T02:09:12.843Z,102155.87
2018-09-03T02:09:24.610Z,102156.25
2018-09-03T02:09:36.380Z,102156.25
2018-09-03T02:09:48.192Z,102162.80
2018-09-03T02:09:59.944Z,102157.94
2018-09-03T02:10:11.715Z,102154.78
2018-09-03T02:10:23.471Z,102159.25
2018-09-03T02:10:35.264Z,102158.32
2018-09-03T02:10:47.101Z,102150.48
2018-09-03T02:10:59.106Z,102155.70
2018-09-03T02:11:10.857Z,102157.78
2018-09-03T02:11:22.601Z,102154.78
2018-09-03T02:11:34.357Z,102154.40
2018-09-03T02:11:46.135Z,102157.94
2018-09-03T02:11:57.920Z,102155.70
2018-09-03T02:12:13.342Z,102151.41
2018-09-03T02:12:25.121Z,102154.40
2018-09-03T02:12:36.928Z,102160.55
2018-09-03T02:12:48.715Z,102154.02
2018-09-03T02:13:00.476Z,102152.33
2018-09-03T02:13:12.238Z,102152.71
2018-09-03T02:13:24.029Z,102153.64
2018-09-03T02:13:35.815Z,102150.86
2018-09-03T02:13:47.578Z,102151.23
2018-09-03T02:13:59.388Z,102146.55
2018-09-03T02:14:11.163Z,102145.63
2018-09-03T02:14:22.927Z,102151.78
2018-09-03T02:14:34.665Z,102147.48
2018-09-03T02:14:46.450Z,102147.48
2018-09-03T02:14:58.202Z,102150.48
2018-09-03T02:15:09.981Z,102153.09
2018-09-03T02:15:21.741Z,102146.17
2018-09-03T02:15:33.548Z,102150.48
2018-09-03T02:15:45.330Z,102149.92
2018-09-03T02:15:57.098Z,102145.24
2018-09-03T02:16:08.846Z,102145.63
2018-09-03T02:16:20.582Z,102142.63
2018-09-03T02:16:32.383Z,102145.63
2018-09-03T02:16:44.134Z,102154.94
2018-09-03T02:16:55.914Z,102145.24
2018-09-03T02:17:07.695Z,102146.55
2018-09-03T02:17:19.464Z,102146.94
2018-09-03T02:17:31.277Z,102142.63
2018-09-03T02:17:43.063Z,102144.70
2018-09-03T02:17:54.809Z,102145.24
2018-09-03T02:18:06.575Z,102142.25
2018-09-03T02:18:18.367Z,102142.63
2018-09-03T02:18:30.136Z,102142.63
2018-09-03T02:18:41.905Z,102141.70
2018-09-03T02:18:53.697Z,102145.24
2018-09-03T02:19:05.732Z,102145.24
2018-09-03T02:19:17.541Z,102140.02
2018-09-03T02:19:29.311Z,102144.48
2018-09-03T02:19:41.096Z,102132.55
2018-09-03T02:19:52.863Z,102144.86
2018-09-03T02:20:04.651Z,102140.02
2018-09-03T02:20:16.420Z,102141.70
2018-09-03T02:20:28.182Z,102142.63
2018-09-03T02:20:39.938Z,102143.94
2018-09-03T02:20:51.734Z,102145.24
2018-09-03T02:21:03.523Z,102141.70
2018-09-03T02:21:15.270Z,102143.94
2018-09-03T02:21:27.022Z,102141.32
2018-09-03T02:21:38.796Z,102143.94
2018-09-03T02:21:50.567Z,102140.39
2018-09-03T02:22:02.639Z,102142.08
2018-09-03T02:22:14.403Z,102144.31
2018-09-03T02:22:26.151Z,102144.70